Time;durP1;ratioP1;P1;durP2;ratioP2;P2;SDS_P1;SDS_P2;PMS_P1;PMS_P2;Temp;Humidity;BMP_temperature;BMP_pressure;BME280_temperature;BME280_humidity;BME280_pressure;Samples;Min_cycle;Max_cycle;Signal;HPM_P1;HPM_P2
2022/09/05 00:01:35;;;;;;;;;;;15.30;99.90;;;;;;5044605;28;19975;-87
2022/09/05 00:04:09;;;;;;;;;;;15.30;99.90;;;;;;5013478;28;19924;-87
2022/09/05 00:06:37;;;;;;;;;;;15.30;99.90;;;;;;5030432;28;19917;-87
2022/09/05 00:09:16;;;;;;;;;;;15.30;99.90;;;;;;5030648;28;19932;-87
2022/09/05 00:11:46;;;;;;;;;;;15.30;99.90;;;;;;5014485;28;19964;-88
2022/09/05 00:14:21;;;;;;;;;;;15.20;99.90;;;;;;5029999;28;19917;-86
2022/09/05 00:17:03;;;;;;;;;;;15.20;99.90;;;;;;5046920;28;20012;-87
2022/09/05 00:19:40;;;;;;;;;;;15.20;99.90;;;;;;5030796;28;20278;-88
2022/09/05 00:22:08;;;;;;;;;;;15.20;99.90;;;;;;5028893;28;20359;-87
2022/09/05 00:25:00;;;;;;;;;;;15.20;99.90;;;;;;5029992;28;19913;-88
2022/09/05 00:27:48;;;;;;;;;;;15.20;99.90;;;;;;5029073;28;20308;-88
2022/09/05 00:30:13;;;;;;;;;;;15.20;99.90;;;;;;5030738;28;19921;-87
2022/09/05 00:32:42;;;;;;;;;;;15.10;99.90;;;;;;5027031;28;20008;-86
2022/09/05 00:35:11;;;;;;;;;;;15.10;99.90;;;;;;5038038;28;19959;-87
2022/09/05 00:37:40;;;;;;;;;;;15.10;99.90;;;;;;5010363;28;19909;-88
2022/09/05 00:40:11;;;;;;;;;;;15.10;99.90;;;;;;5026356;28;20016;-86
2022/09/05 00:42:37;;;;;;;;;;;15.00;99.90;;;;;;5029316;28;20591;-86
2022/09/05 00:45:04;;;;;;;;;;;15.00;99.90;;;;;;5029346;28;19917;-87
2022/09/05 00:47:48;;;;;;;;;;;15.00;99.90;;;;;;5029867;28;19921;-89
2022/09/05 00:50:35;;;;;;;;;;;14.90;99.90;;;;;;5013311;28;20378;-85
2022/09/05 00:53:05;;;;;;;;;;;14.90;99.90;;;;;;5025670;28;19913;-87
2022/09/05 00:55:34;;;;;;;;;;;14.90;99.90;;;;;;5009579;28;19914;-87
2022/09/05 00:58:08;;;;;;;;;;;14.90;99.90;;;;;;5022455;28;19918;-88
2022/09/05 01:00:44;;;;;;;;;;;14.90;99.90;;;;;;5028280;28;20449;-88
2022/09/05 01:03:28;;;;;;;;;;;14.90;99.90;;;;;;5035643;28;19964;-88
2022/09/05 01:05:57;;;;;;;;;;;14.80;99.90;;;;;;5038361;28;19917;-88
2022/09/05 01:08:29;;;;;;;;;;;14.80;99.90;;;;;;5019269;28;19917;-87
2022/09/05 01:11:02;;;;;;;;;;;14.80;99.90;;;;;;5021419;28;19917;-88
2022/09/05 01:13:48;;;;;;;;;;;14.70;99.90;;;;;;5031233;28;20340;-87
2022/09/05 01:16:31;;;;;;;;;;;14.70;99.90;;;;;;5016726;28;19919;-87
2022/09/05 01:19:24;;;;;;;;;;;14.70;99.90;;;;;;5029673;28;19913;-86
2022/09/05 01:22:08;;;;;;;;;;;14.70;99.90;;;;;;5029440;28;20386;-87
2022/09/05 01:24:37;;;;;;;;;;;14.60;99.90;;;;;;5012793;28;20015;-87
2022/09/05 01:27:21;;;;;;;;;;;14.60;99.90;;;;;;5029314;28;19920;-87
2022/09/05 01:30:10;;;;;;;;;;;14.60;99.90;;;;;;5012886;28;19913;-88
2022/09/05 01:32:59;;;;;;;;;;;14.60;99.90;;;;;;5004932;28;20335;-87
2022/09/05 01:35:25;;;;;;;;;;;14.60;99.90;;;;;;4992552;28;19926;-87
2022/09/05 01:37:53;;;;;;;;;;;14.60;99.90;;;;;;5006257;28;20050;-87
2022/09/05 01:40:24;;;;;;;;;;;14.60;99.90;;;;;;5029421;28;19913;-88
2022/09/05 01:42:50;;;;;;;;;;;14.60;99.90;;;;;;5028544;28;19920;-86
2022/09/05 01:45:24;;;;;;;;;;;14.60;99.90;;;;;;5028341;28;19917;-88
2022/09/05 01:47:59;;;;;;;;;;;14.50;99.90;;;;;;5027535;28;20389;-88
2022/09/05 01:50:31;;;;;;;;;;;14.50;99.90;;;;;;5023670;28;19913;-88
2022/09/05 01:53:07;;;;;;;;;;;14.50;99.90;;;;;;5026999;28;19913;-88
2022/09/05 01:55:42;;;;;;;;;;;14.40;99.90;;;;;;5028196;28;19920;-87
2022/09/05 01:58:13;;;;;;;;;;;14.40;99.90;;;;;;5029491;28;19913;-87
2022/09/05 02:00:45;;;;;;;;;;;14.40;99.90;;;;;;5028767;28;19935;-86
2022/09/05 02:03:22;;;;;;;;;;;14.40;99.90;;;;;;5025348;28;19913;-86
2022/09/05 02:06:09;;;;;;;;;;;14.40;99.90;;;;;;5033706;28;19955;-88
2022/09/05 02:08:44;;;;;;;;;;;14.30;99.90;;;;;;5028583;28;20391;-87
2022/09/05 02:11:11;;;;;;;;;;;14.30;99.90;;;;;;5021622;28;19917;-86
2022/09/05 02:13:36;;;;;;;;;;;14.30;99.90;;;;;;5029295;28;19952;-87
2022/09/05 02:16:18;;;;;;;;;;;14.20;99.90;;;;;;5026284;28;19967;-88
2022/09/05 02:18:43;;;;;;;;;;;14.20;99.90;;;;;;5028623;28;19979;-87
2022/09/05 02:21:14;;;;;;;;;;;14.20;99.90;;;;;;5028920;28;20324;-87
2022/09/05 02:23:43;;;;;;;;;;;14.20;99.90;;;;;;5028098;28;19920;-87
2022/09/05 02:26:15;;;;;;;;;;;14.20;99.90;;;;;;5011474;28;19929;-87
2022/09/05 02:28:57;;;;;;;;;;;14.20;99.90;;;;;;5011863;28;19913;-87
2022/09/05 02:31:43;;;;;;;;;;;14.20;99.90;;;;;;5028311;28;20365;-88
2022/09/05 02:34:14;;;;;;;;;;;14.20;99.90;;;;;;5016958;28;19920;-87
2022/09/05 02:36:49;;;;;;;;;;;14.10;99.90;;;;;;5011516;28;20398;-87
2022/09/05 02:39:19;;;;;;;;;;;14.10;99.90;;;;;;5031421;28;20531;-88
2022/09/05 02:41:51;;;;;;;;;;;14.10;99.90;;;;;;5041719;28;19913;-88
2022/09/05 02:44:17;;;;;;;;;;;14.10;99.90;;;;;;5033616;28;19970;-87
2022/09/05 02:46:44;;;;;;;;;;;14.10;99.90;;;;;;5033924;28;19987;-88
2022/09/05 02:49:21;;;;;;;;;;;14.10;99.90;;;;;;5048918;28;19920;-87
2022/09/05 02:52:01;;;;;;;;;;;14.10;99.90;;;;;;5015770;28;19996;-87
2022/09/05 02:54:29;;;;;;;;;;;14.10;99.90;;;;;;5031798;28;19921;-86
2022/09/05 02:56:58;;;;;;;;;;;14.10;99.90;;;;;;5045786;28;19952;-87
2022/09/05 02:59:26;;;;;;;;;;;14.10;99.90;;;;;;5015978;28;19917;-88
2022/09/05 03:02:11;;;;;;;;;;;14.00;99.90;;;;;;5015717;28;19913;-87
2022/09/05 03:04:51;;;;;;;;;;;14.00;99.90;;;;;;5043080;28;19913;-86
2022/09/05 03:07:35;;;;;;;;;;;14.00;99.90;;;;;;5015023;28;19917;-87
2022/09/05 03:10:20;;;;;;;;;;;13.90;99.90;;;;;;5025454;28;20000;-86
2022/09/05 03:12:58;;;;;;;;;;;13.90;99.90;;;;;;5013281;28;19919;-87
2022/09/05 03:15:43;;;;;;;;;;;13.90;99.90;;;;;;5036612;28;20334;-87
2022/09/05 03:18:22;;;;;;;;;;;13.80;99.90;;;;;;5020499;28;19913;-87
2022/09/05 03:20:54;;;;;;;;;;;13.80;99.90;;;;;;5031975;28;19913;-87
2022/09/05 03:23:38;;;;;;;;;;;13.70;99.90;;;;;;5031416;28;19967;-86
2022/09/05 03:26:27;;;;;;;;;;;13.70;99.90;;;;;;5047720;28;19913;-88
2022/09/05 03:28:56;;;;;;;;;;;13.70;99.90;;;;;;5021406;28;19960;-86
2022/09/05 03:31:49;;;;;;;;;;;13.70;99.90;;;;;;5023615;28;19913;-87
2022/09/05 03:34:27;;;;;;;;;;;13.70;99.90;;;;;;5038070;28;20452;-86
2022/09/05 03:36:58;;;;;;;;;;;13.70;99.90;;;;;;5030993;28;19919;-88
2022/09/05 03:39:41;;;;;;;;;;;13.60;99.90;;;;;;5048095;28;19924;-87
2022/09/05 03:42:20;;;;;;;;;;;13.60;99.90;;;;;;5031048;28;20495;-86
2022/09/05 03:45:00;;;;;;;;;;;13.60;99.90;;;;;;5030448;28;19917;-86
2022/09/05 03:47:35;;;;;;;;;;;13.60;99.90;;;;;;5031240;28;19920;-86
2022/09/05 03:50:10;;;;;;;;;;;13.60;99.90;;;;;;5043093;28;19917;-87
2022/09/05 03:52:39;;;;;;;;;;;13.60;99.90;;;;;;5030492;28;19952;-85
2022/09/05 03:55:07;;;;;;;;;;;13.60;99.90;;;;;;5047074;28;20004;-87
2022/09/05 03:57:39;;;;;;;;;;;13.50;99.90;;;;;;5047457;28;19982;-87
2022/09/05 04:00:07;;;;;;;;;;;13.50;99.90;;;;;;5030759;28;19931;-86
2022/09/05 04:02:48;;;;;;;;;;;13.50;99.90;;;;;;5030174;28;19936;-86
2022/09/05 04:05:19;;;;;;;;;;;13.50;99.90;;;;;;5013458;28;20001;-86
2022/09/05 04:07:48;;;;;;;;;;;13.40;99.90;;;;;;5030764;28;19913;-86
2022/09/05 04:10:24;;;;;;;;;;;13.40;99.90;;;;;;5014283;28;20360;-86
2022/09/05 04:13:04;;;;;;;;;;;13.40;99.90;;;;;;5013584;28;19920;-86
2022/09/05 04:15:39;;;;;;;;;;;13.40;99.90;;;;;;5030389;28;19921;-86
2022/09/05 04:18:25;;;;;;;;;;;13.40;99.90;;;;;;5023281;28;19917;-86
2022/09/05 04:20:54;;;;;;;;;;;13.30;99.90;;;;;;5030440;28;19948;-87
2022/09/05 04:23:23;;;;;;;;;;;13.30;99.90;;;;;;5044963;28;19913;-87
2022/09/05 04:26:01;;;;;;;;;;;13.30;99.90;;;;;;5029694;28;19913;-86
2022/09/05 04:28:39;;;;;;;;;;;13.30;99.90;;;;;;5013566;28;19913;-86
2022/09/05 04:31:05;;;;;;;;;;;13.30;99.90;;;;;;5030575;28;20028;-87
2022/09/05 04:33:49;;;;;;;;;;;13.30;99.90;;;;;;5030034;28;20004;-87
2022/09/05 04:36:18;;;;;;;;;;;13.20;99.90;;;;;;5029463;28;20431;-87
2022/09/05 04:38:44;;;;;;;;;;;13.20;99.90;;;;;;5030278;28;19913;-87
2022/09/05 04:41:16;;;;;;;;;;;13.20;99.90;;;;;;5014089;28;20385;-86
2022/09/05 04:43:47;;;;;;;;;;;13.20;99.90;;;;;;5033829;28;19948;-87
2022/09/05 04:46:28;;;;;;;;;;;13.20;99.90;;;;;;5012774;28;19928;-87
2022/09/05 04:49:12;;;;;;;;;;;13.20;99.90;;;;;;5013371;28;19976;-86
2022/09/05 04:51:44;;;;;;;;;;;13.20;99.90;;;;;;5007524;28;19914;-87
2022/09/05 04:54:13;;;;;;;;;;;13.20;99.90;;;;;;5032617;28;19917;-86
2022/09/05 04:56:41;;;;;;;;;;;13.20;99.90;;;;;;5035906;28;19912;-86
2022/09/05 04:59:15;;;;;;;;;;;13.20;99.90;;;;;;5012894;28;20016;-87
2022/09/05 05:01:44;;;;;;;;;;;13.20;99.90;;;;;;5035612;28;19991;-86
2022/09/05 05:04:15;;;;;;;;;;;13.20;99.90;;;;;;5017288;28;19909;-87
2022/09/05 05:06:46;;;;;;;;;;;13.20;99.90;;;;;;5013524;28;19939;-86
2022/09/05 05:09:24;;;;;;;;;;;13.20;99.90;;;;;;5012479;28;19913;-87
2022/09/05 05:11:53;;;;;;;;;;;13.20;99.90;;;;;;5029589;28;19990;-86
2022/09/05 05:14:27;;;;;;;;;;;13.20;99.90;;;;;;5023319;28;19948;-85
2022/09/05 05:16:59;;;;;;;;;;;13.30;99.90;;;;;;5009609;28;19924;-86
2022/09/05 05:19:35;;;;;;;;;;;13.30;99.90;;;;;;5009507;28;20441;-86
2022/09/05 05:22:03;;;;;;;;;;;13.30;99.90;;;;;;5021139;28;19960;-84
2022/09/05 05:24:34;;;;;;;;;;;13.30;99.90;;;;;;5029094;28;20178;-87
2022/09/05 05:27:09;;;;;;;;;;;13.40;99.90;;;;;;5012885;28;19913;-86
2022/09/05 05:29:37;;;;;;;;;;;13.40;99.90;;;;;;5029499;28;19924;-86
2022/09/05 05:32:04;;;;;;;;;;;13.50;99.90;;;;;;5030002;28;19936;-86
2022/09/05 05:34:40;;;;;;;;;;;13.50;99.90;;;;;;5045388;28;20337;-87
2022/09/05 05:37:19;;;;;;;;;;;13.60;99.90;;;;;;5029102;28;19913;-87
2022/09/05 05:39:48;;;;;;;;;;;13.70;99.90;;;;;;5029126;28;19917;-86
2022/09/05 05:42:16;;;;;;;;;;;13.70;99.90;;;;;;5012300;28;19928;-84
2022/09/05 05:44:46;;;;;;;;;;;13.80;99.90;;;;;;5028367;28;19932;-86
2022/09/05 05:47:15;;;;;;;;;;;13.90;99.90;;;;;;5028922;28;19948;-86
2022/09/05 05:49:48;;;;;;;;;;;14.00;99.90;;;;;;5005338;28;19917;-86
2022/09/05 05:52:26;;;;;;;;;;;14.10;99.90;;;;;;4992105;28;19922;-86
2022/09/05 05:54:56;;;;;;;;;;;14.30;99.90;;;;;;4992167;28;19957;-85
2022/09/05 05:57:28;;;;;;;;;;;14.60;99.90;;;;;;4992435;28;20285;-86
2022/09/05 06:00:09;;;;;;;;;;;15.00;99.90;;;;;;5023151;28;19920;-85
2022/09/05 06:03:01;;;;;;;;;;;15.30;99.90;;;;;;5012381;28;19987;-86
2022/09/05 06:05:38;;;;;;;;;;;15.80;99.90;;;;;;5040763;28;20254;-86
2022/09/05 06:08:22;;;;;;;;;;;16.20;99.90;;;;;;5028663;28;19913;-86
2022/09/05 06:11:07;;;;;;;;;;;16.60;99.90;;;;;;5019405;28;20013;-86
2022/09/05 06:13:36;;;;;;;;;;;16.90;99.90;;;;;;5016362;28;19987;-87
2022/09/05 06:16:19;;;;;;;;;;;17.30;99.90;;;;;;5028134;28;19953;-87
2022/09/05 06:18:46;;;;;;;;;;;17.50;99.90;;;;;;5012043;28;19917;-88
2022/09/05 06:21:31;;;;;;;;;;;17.90;99.90;;;;;;5028040;28;19915;-86
2022/09/05 06:24:17;;;;;;;;;;;18.20;99.90;;;;;;5031147;28;20043;-86
2022/09/05 06:27:01;;;;;;;;;;;18.50;99.90;;;;;;5020365;28;20384;-88
2022/09/05 06:29:45;;;;;;;;;;;18.80;99.90;;;;;;5028362;28;20397;-87
2022/09/05 06:32:20;;;;;;;;;;;19.10;99.90;;;;;;5019754;28;19920;-87
2022/09/05 06:34:55;;;;;;;;;;;19.40;99.90;;;;;;5027520;28;20306;-88
2022/09/05 06:37:21;;;;;;;;;;;19.60;99.90;;;;;;5012300;28;19919;-86
2022/09/05 06:39:59;;;;;;;;;;;19.80;99.90;;;;;;5019476;28;20374;-88
2022/09/05 06:42:35;;;;;;;;;;;19.90;99.90;;;;;;5027572;28;19917;-87
2022/09/05 06:45:10;;;;;;;;;;;20.10;99.90;;;;;;5011496;28;20493;-87
2022/09/05 06:47:36;;;;;;;;;;;20.30;99.90;;;;;;5031445;28;19960;-87
2022/09/05 06:50:10;;;;;;;;;;;20.60;99.90;;;;;;5028597;28;19910;-87
2022/09/05 06:52:50;;;;;;;;;;;20.80;99.90;;;;;;5027006;28;20344;-85
2022/09/05 06:55:24;;;;;;;;;;;21.10;99.90;;;;;;5027843;28;19983;-87
2022/09/05 06:58:02;;;;;;;;;;;21.30;99.90;;;;;;5016177;28;20003;-86
2022/09/05 07:00:28;;;;;;;;;;;21.30;99.90;;;;;;5028862;28;19917;-87
2022/09/05 07:03:03;;;;;;;;;;;21.70;99.90;;;;;;5027022;28;20583;-87
2022/09/05 07:05:33;;;;;;;;;;;22.00;99.90;;;;;;5011506;28;20495;-87
2022/09/05 07:08:17;;;;;;;;;;;22.30;99.90;;;;;;5031211;28;19913;-87
2022/09/05 07:10:50;;;;;;;;;;;22.60;99.90;;;;;;5028531;28;20413;-88
2022/09/05 07:13:19;;;;;;;;;;;22.50;99.90;;;;;;5029012;28;19968;-87
2022/09/05 07:15:54;;;;;;;;;;;22.40;99.90;;;;;;5026041;28;19913;-87
2022/09/05 07:18:20;;;;;;;;;;;22.60;99.90;;;;;;5019328;28;19921;-87
2022/09/05 07:20:59;;;;;;;;;;;22.80;99.90;;;;;;5021324;28;19917;-89
2022/09/05 07:23:31;;;;;;;;;;;22.70;99.90;;;;;;5019789;28;19967;-88
2022/09/05 07:25:57;;;;;;;;;;;22.80;99.90;;;;;;5027237;28;19939;-86
2022/09/05 07:28:23;;;;;;;;;;;23.00;99.90;;;;;;5028189;28;20519;-87
2022/09/05 07:30:51;;;;;;;;;;;23.30;99.90;;;;;;5005304;28;19944;-87
2022/09/05 07:33:18;;;;;;;;;;;23.40;99.90;;;;;;5029977;28;19917;-87
2022/09/05 07:35:44;;;;;;;;;;;23.50;99.90;;;;;;5026935;28;19914;-87
2022/09/05 07:38:14;;;;;;;;;;;23.60;99.90;;;;;;4999316;28;20449;-87
2022/09/05 07:40:47;;;;;;;;;;;23.80;99.90;;;;;;5031384;28;19917;-86
2022/09/05 07:43:17;;;;;;;;;;;23.80;99.90;;;;;;5031367;28;19913;-88
2022/09/05 07:45:46;;;;;;;;;;;23.50;99.90;;;;;;5025398;28;19924;-87
2022/09/05 07:48:31;;;;;;;;;;;23.60;99.90;;;;;;5005293;28;19918;-87
2022/09/05 07:50:58;;;;;;;;;;;23.70;99.90;;;;;;5018255;28;19964;-87
2022/09/05 07:53:25;;;;;;;;;;;23.40;99.90;;;;;;5028362;28;19913;-87
2022/09/05 07:55:55;;;;;;;;;;;23.40;99.90;;;;;;5030438;28;19917;-89
2022/09/05 07:58:22;;;;;;;;;;;23.30;99.90;;;;;;5014012;28;19917;-88
2022/09/05 08:00:53;;;;;;;;;;;23.20;99.90;;;;;;5027863;28;19913;-86
2022/09/05 08:03:23;;;;;;;;;;;23.10;99.90;;;;;;5027047;28;19913;-87
2022/09/05 08:05:52;;;;;;;;;;;23.20;99.90;;;;;;5030382;28;19952;-87
2022/09/05 08:08:23;;;;;;;;;;;23.10;99.90;;;;;;5014220;28;19917;-88
2022/09/05 08:10:49;;;;;;;;;;;23.00;99.90;;;;;;5021749;28;19917;-88
2022/09/05 08:13:17;;;;;;;;;;;22.90;99.90;;;;;;5022049;28;19913;-88
2022/09/05 08:15:48;;;;;;;;;;;22.90;99.90;;;;;;5021462;28;20011;-87
2022/09/05 08:18:16;;;;;;;;;;;22.80;99.90;;;;;;5012684;28;20409;-86
2022/09/05 08:20:51;;;;;;;;;;;22.60;99.90;;;;;;5013094;28;20000;-87
2022/09/05 08:23:28;;;;;;;;;;;22.70;99.90;;;;;;5021455;28;19913;-86
2022/09/05 08:26:07;;;;;;;;;;;22.80;99.90;;;;;;5027630;28;19960;-89
2022/09/05 08:28:33;;;;;;;;;;;22.90;99.90;;;;;;5010494;28;19936;-87
2022/09/05 08:31:02;;;;;;;;;;;22.90;99.90;;;;;;5022421;28;19913;-87
2022/09/05 08:33:33;;;;;;;;;;;22.90;99.90;;;;;;5006292;28;19927;-86
2022/09/05 08:36:02;;;;;;;;;;;23.00;99.90;;;;;;5020024;28;20527;-87
2022/09/05 08:38:31;;;;;;;;;;;22.90;99.90;;;;;;5030243;28;19959;-88
2022/09/05 08:40:57;;;;;;;;;;;22.90;99.90;;;;;;5032018;28;20374;-87
2022/09/05 08:43:46;;;;;;;;;;;23.00;99.90;;;;;;5010049;28;19920;-86
2022/09/05 08:46:14;;;;;;;;;;;23.00;99.90;;;;;;5041910;28;19939;-86
2022/09/05 08:48:58;;;;;;;;;;;23.10;99.90;;;;;;5018308;28;19913;-87
2022/09/05 08:51:24;;;;;;;;;;;23.10;99.90;;;;;;5034581;28;20007;-87
2022/09/05 08:53:53;;;;;;;;;;;23.10;99.90;;;;;;5034923;28;20349;-87
2022/09/05 08:56:21;;;;;;;;;;;23.10;99.90;;;;;;5034427;28;20011;-87
2022/09/05 08:59:15;;;;;;;;;;;23.10;99.90;;;;;;5014725;28;20012;-87
2022/09/05 09:01:56;;;;;;;;;;;23.10;99.90;;;;;;5014820;28;20281;-87
2022/09/05 09:04:27;;;;;;;;;;;23.10;99.90;;;;;;5032491;28;19914;-87
2022/09/05 09:07:04;;;;;;;;;;;23.10;99.90;;;;;;5048496;28;20378;-87
2022/09/05 09:09:41;;;;;;;;;;;23.10;99.90;;;;;;5031393;28;19913;-87
2022/09/05 09:12:13;;;;;;;;;;;23.10;99.90;;;;;;5031403;28;19948;-87
2022/09/05 09:14:48;;;;;;;;;;;23.20;99.90;;;;;;5016576;28;20012;-87
2022/09/05 09:17:20;;;;;;;;;;;23.30;99.90;;;;;;5012073;28;19914;-87
2022/09/05 09:19:46;;;;;;;;;;;23.20;99.90;;;;;;5011265;28;19913;-87
2022/09/05 09:22:29;;;;;;;;;;;23.20;99.90;;;;;;5010935;28;20305;-86
2022/09/05 09:25:03;;;;;;;;;;;23.20;99.90;;;;;;5031825;28;19980;-88
2022/09/05 09:27:48;;;;;;;;;;;23.30;99.90;;;;;;5031594;28;19924;-87
2022/09/05 09:30:14;;;;;;;;;;;23.40;99.90;;;;;;5030845;28;19913;-87
2022/09/05 09:32:43;;;;;;;;;;;23.40;99.90;;;;;;5031439;28;20326;-88
2022/09/05 09:35:12;;;;;;;;;;;23.40;99.90;;;;;;5013922;28;19921;-87
2022/09/05 09:37:47;;;;;;;;;;;23.50;99.90;;;;;;5031068;28;19910;-87
2022/09/05 09:40:22;;;;;;;;;;;23.40;99.90;;;;;;5014791;28;20331;-87
2022/09/05 09:42:56;;;;;;;;;;;23.40;99.90;;;;;;5031363;28;20321;-88
2022/09/05 09:45:41;;;;;;;;;;;23.40;99.90;;;;;;5013655;28;19917;-87
2022/09/05 09:48:09;;;;;;;;;;;23.60;99.90;;;;;;5038815;28;20263;-87
2022/09/05 09:50:54;;;;;;;;;;;23.60;99.90;;;;;;5031236;28;19913;-87
2022/09/05 09:53:19;;;;;;;;;;;23.60;99.90;;;;;;5030088;28;19959;-87
2022/09/05 09:56:05;;;;;;;;;;;23.60;99.90;;;;;;5031234;28;19917;-86
2022/09/05 09:58:49;;;;;;;;;;;23.50;99.90;;;;;;5013657;28;19913;-87
2022/09/05 10:01:22;;;;;;;;;;;23.60;99.90;;;;;;5014154;28;20023;-87
2022/09/05 10:03:56;;;;;;;;;;;23.60;99.90;;;;;;5014401;28;19920;-88
2022/09/05 10:06:43;;;;;;;;;;;23.70;99.90;;;;;;5031052;28;19913;-87
2022/09/05 10:09:19;;;;;;;;;;;23.70;99.90;;;;;;5011110;28;19914;-86
2022/09/05 10:11:46;;;;;;;;;;;23.80;99.90;;;;;;5010701;28;19944;-87
2022/09/05 10:14:50;;;;;;;;;;;23.80;99.90;;;;;;4994276;28;20317;-88
2022/09/05 10:17:16;;;;;;;;;;;23.90;99.10;;;;;;5017089;28;20636;-86
2022/09/05 10:19:44;;;;;;;;;;;23.90;99.60;;;;;;5049632;28;19913;-87
2022/09/05 10:22:13;;;;;;;;;;;23.90;99.90;;;;;;5036418;28;19913;-87
2022/09/05 10:25:07;;;;;;;;;;;23.90;99.50;;;;;;4994122;28;19914;-87
2022/09/05 10:27:37;;;;;;;;;;;24.00;99.90;;;;;;5011148;28;19913;-88
2022/09/05 10:30:05;;;;;;;;;;;24.00;99.20;;;;;;5010914;28;20007;-88
2022/09/05 10:32:33;;;;;;;;;;;24.10;98.70;;;;;;5011952;28;20366;-86
2022/09/05 10:35:04;;;;;;;;;;;24.10;99.00;;;;;;5000741;28;19924;-90
2022/09/05 10:37:40;;;;;;;;;;;24.10;98.90;;;;;;5013825;28;19913;-87
2022/09/05 10:40:09;;;;;;;;;;;24.10;97.70;;;;;;5030593;28;19919;-86
2022/09/05 10:42:38;;;;;;;;;;;24.10;97.70;;;;;;5040224;28;19917;-86
2022/09/05 10:45:12;;;;;;;;;;;24.20;99.50;;;;;;5033336;28;19970;-87
2022/09/05 10:47:40;;;;;;;;;;;24.30;97.80;;;;;;5034023;28;19962;-88
2022/09/05 10:50:05;;;;;;;;;;;24.40;97.80;;;;;;5033921;28;19973;-89
2022/09/05 10:52:35;;;;;;;;;;;24.50;97.80;;;;;;5049616;28;20552;-87
2022/09/05 10:55:09;;;;;;;;;;;24.60;96.10;;;;;;5033242;28;19917;-86
2022/09/05 10:57:50;;;;;;;;;;;24.60;95.90;;;;;;5033706;28;20511;-87
2022/09/05 11:00:28;;;;;;;;;;;24.70;96.60;;;;;;5033015;28;19916;-86
2022/09/05 11:02:56;;;;;;;;;;;24.70;95.10;;;;;;5049857;28;19919;-87
2022/09/05 11:05:27;;;;;;;;;;;24.70;94.80;;;;;;5032343;28;19924;-88
2022/09/05 11:07:52;;;;;;;;;;;24.70;94.00;;;;;;5019574;28;19982;-87
2022/09/05 11:10:21;;;;;;;;;;;24.70;94.70;;;;;;5033731;28;20437;-86
2022/09/05 11:12:47;;;;;;;;;;;24.70;93.10;;;;;;5049252;28;19909;-87
2022/09/05 11:15:15;;;;;;;;;;;24.60;94.30;;;;;;5028701;28;19964;-87
2022/09/05 11:17:51;;;;;;;;;;;24.60;92.90;;;;;;4997048;28;20421;-87
2022/09/05 11:20:17;;;;;;;;;;;24.60;93.30;;;;;;5021526;28;20007;-86
2022/09/05 11:22:45;;;;;;;;;;;24.70;95.00;;;;;;5012912;28;20010;-86
2022/09/05 11:25:18;;;;;;;;;;;24.70;94.10;;;;;;5016831;28;20270;-88
2022/09/05 11:27:46;;;;;;;;;;;24.80;92.10;;;;;;5017254;28;19917;-86
2022/09/05 11:30:14;;;;;;;;;;;24.70;91.00;;;;;;5014691;28;19914;-87
2022/09/05 11:33:02;;;;;;;;;;;24.50;92.70;;;;;;5015911;28;20390;-86
2022/09/05 11:35:35;;;;;;;;;;;24.50;93.10;;;;;;5016655;28;19944;-87
2022/09/05 11:38:07;;;;;;;;;;;24.60;93.10;;;;;;5037047;28;19913;-87
2022/09/05 11:40:33;;;;;;;;;;;24.70;92.40;;;;;;5036901;28;19999;-86
2022/09/05 11:43:04;;;;;;;;;;;24.70;93.50;;;;;;5034185;28;20648;-87
2022/09/05 11:45:39;;;;;;;;;;;24.60;92.70;;;;;;5034231;28;19917;-86
2022/09/05 11:48:40;;;;;;;;;;;24.40;92.70;;;;;;5017428;28;19917;-90
2022/09/05 11:51:21;;;;;;;;;;;24.40;93.20;;;;;;4998991;28;20451;-86
2022/09/05 11:54:05;;;;;;;;;;;24.40;91.60;;;;;;5031026;28;19917;-87
2022/09/05 11:56:50;;;;;;;;;;;24.50;92.30;;;;;;5013043;28;19944;-86
2022/09/05 11:59:22;;;;;;;;;;;24.60;93.00;;;;;;5023633;28;19979;-87
2022/09/05 12:02:06;;;;;;;;;;;24.80;92.60;;;;;;5015685;28;20015;-88
2022/09/05 12:04:44;;;;;;;;;;;24.90;92.70;;;;;;5013384;28;19921;-87
2022/09/05 12:07:13;;;;;;;;;;;25.10;93.30;;;;;;5013571;28;19952;-87
2022/09/05 12:09:48;;;;;;;;;;;25.10;88.10;;;;;;5013175;28;19909;-87
2022/09/05 12:12:23;;;;;;;;;;;25.10;89.00;;;;;;5013271;28;19917;-86
2022/09/05 12:15:08;;;;;;;;;;;25.10;90.50;;;;;;5015108;28;19917;-86
2022/09/05 12:17:52;;;;;;;;;;;25.20;89.00;;;;;;5015731;28;19913;-87
2022/09/05 12:20:36;;;;;;;;;;;25.40;87.30;;;;;;5025589;28;19914;-86
2022/09/05 12:23:25;;;;;;;;;;;25.60;86.20;;;;;;5012408;28;20000;-86
2022/09/05 12:25:51;;;;;;;;;;;25.80;89.40;;;;;;5016532;28;19912;-87
2022/09/05 12:28:24;;;;;;;;;;;26.00;80.40;;;;;;5036745;28;19920;-89
2022/09/05 12:30:52;;;;;;;;;;;26.00;81.10;;;;;;5024714;28;20553;-88
2022/09/05 12:33:30;;;;;;;;;;;26.10;78.30;;;;;;5015299;28;19917;-86
2022/09/05 12:36:14;;;;;;;;;;;26.10;78.40;;;;;;5031941;28;20391;-87
2022/09/05 12:39:18;;;;;;;;;;;26.10;79.60;;;;;;5016875;28;20377;-86
2022/09/05 12:41:44;;;;;;;;;;;26.00;76.40;;;;;;4988699;28;20355;-86
2022/09/05 12:44:24;;;;;;;;;;;25.90;74.20;;;;;;4998694;28;19920;-87
2022/09/05 12:46:59;;;;;;;;;;;25.80;75.40;;;;;;5028547;28;19917;-87
2022/09/05 12:49:25;;;;;;;;;;;25.80;76.80;;;;;;5012503;28;19968;-87
2022/09/05 12:51:58;;;;;;;;;;;25.80;76.30;;;;;;4996573;28;19913;-88
2022/09/05 12:54:32;;;;;;;;;;;25.80;78.50;;;;;;5006324;28;20301;-86
2022/09/05 12:57:00;;;;;;;;;;;25.70;77.90;;;;;;5016427;28;19967;-86
2022/09/05 12:59:28;;;;;;;;;;;25.60;78.00;;;;;;5015019;28;19917;-87
2022/09/05 13:02:02;;;;;;;;;;;25.60;79.70;;;;;;5017946;28;19978;-86
2022/09/05 13:04:36;;;;;;;;;;;25.60;79.30;;;;;;5036179;28;19917;-87
2022/09/05 13:07:06;;;;;;;;;;;25.70;78.60;;;;;;5016801;28;19913;-86
2022/09/05 13:09:42;;;;;;;;;;;25.80;76.60;;;;;;5025232;28;20008;-86
2022/09/05 13:12:18;;;;;;;;;;;26.00;72.70;;;;;;4994959;28;19913;-87
2022/09/05 13:14:51;;;;;;;;;;;26.00;74.00;;;;;;5023049;28;19917;-86
2022/09/05 13:17:20;;;;;;;;;;;25.90;70.60;;;;;;5019402;28;19936;-86
2022/09/05 13:19:50;;;;;;;;;;;25.80;74.20;;;;;;5019763;28;19979;-87
2022/09/05 13:22:18;;;;;;;;;;;25.80;72.40;;;;;;5025984;28;20013;-87
2022/09/05 13:24:46;;;;;;;;;;;25.70;76.10;;;;;;5026917;28;19924;-86
2022/09/05 13:27:14;;;;;;;;;;;25.70;79.10;;;;;;5030818;28;19913;-86
2022/09/05 13:29:51;;;;;;;;;;;25.70;73.10;;;;;;5030872;28;19948;-86
2022/09/05 13:32:52;;;;;;;;;;;25.70;73.40;;;;;;5031882;28;19932;-87
2022/09/05 13:35:35;;;;;;;;;;;25.70;74.60;;;;;;4996658;28;20448;-85
2022/09/05 13:38:23;;;;;;;;;;;25.70;72.40;;;;;;4994910;28;19917;-88
2022/09/05 13:40:50;;;;;;;;;;;25.70;70.50;;;;;;5012704;28;19913;-87
2022/09/05 13:43:25;;;;;;;;;;;25.70;72.50;;;;;;5026512;28;20308;-87
2022/09/05 13:46:02;;;;;;;;;;;25.60;71.40;;;;;;5010311;28;20583;-87
2022/09/05 13:48:28;;;;;;;;;;;25.60;74.40;;;;;;5010782;28;19922;-87
2022/09/05 13:50:58;;;;;;;;;;;25.60;71.80;;;;;;5041873;28;19910;-86
2022/09/05 13:53:35;;;;;;;;;;;25.60;71.00;;;;;;5030941;28;19920;-87
2022/09/05 13:56:21;;;;;;;;;;;25.60;71.10;;;;;;5013960;28;19967;-86
2022/09/05 13:58:53;;;;;;;;;;;25.60;70.40;;;;;;5013470;28;19913;-87
2022/09/05 14:01:19;;;;;;;;;;;25.60;70.80;;;;;;5030625;28;19952;-87
2022/09/05 14:03:54;;;;;;;;;;;25.60;70.60;;;;;;5046989;28;19936;-87
2022/09/05 14:06:26;;;;;;;;;;;25.50;70.80;;;;;;5008707;28;19913;-88
2022/09/05 14:09:11;;;;;;;;;;;25.50;71.80;;;;;;4997997;28;19920;-87
2022/09/05 14:11:43;;;;;;;;;;;25.40;71.10;;;;;;5029192;28;20429;-86
2022/09/05 14:14:13;;;;;;;;;;;25.40;72.40;;;;;;5017342;28;19918;-87
2022/09/05 14:16:44;;;;;;;;;;;25.30;72.50;;;;;;4992439;28;19935;-86
2022/09/05 14:22:01;;;;;;;;;;;25.10;71.90;;;;;;5009973;28;20025;-87
2022/09/05 14:24:27;;;;;;;;;;;25.00;74.00;;;;;;5014195;28;19913;-86
2022/09/05 14:26:59;;;;;;;;;;;25.10;73.10;;;;;;5013123;28;20015;-86
2022/09/05 14:29:31;;;;;;;;;;;25.10;73.50;;;;;;5010429;28;19913;-87
2022/09/05 14:32:14;;;;;;;;;;;25.10;72.10;;;;;;5029394;28;19940;-87
2022/09/05 14:34:40;;;;;;;;;;;25.10;71.80;;;;;;4995523;28;19924;-88
2022/09/05 14:37:06;;;;;;;;;;;25.10;70.10;;;;;;5026337;28;20473;-87
2022/09/05 14:39:31;;;;;;;;;;;25.00;70.40;;;;;;5011256;28;19917;-87
2022/09/05 14:42:17;;;;;;;;;;;25.00;69.80;;;;;;4999347;28;19917;-86
2022/09/05 14:44:55;;;;;;;;;;;25.00;70.70;;;;;;5009982;28;20270;-87
2022/09/05 14:47:47;;;;;;;;;;;24.90;73.80;;;;;;5024649;28;19913;-87
2022/09/05 14:50:26;;;;;;;;;;;24.80;70.00;;;;;;5005686;28;19913;-87
2022/09/05 14:52:59;;;;;;;;;;;24.80;70.10;;;;;;5030064;28;19914;-87
2022/09/05 14:55:25;;;;;;;;;;;24.80;72.20;;;;;;5030796;28;20397;-87
2022/09/05 14:57:51;;;;;;;;;;;24.80;69.80;;;;;;5047096;28;19956;-88
2022/09/05 15:00:19;;;;;;;;;;;24.90;70.80;;;;;;5014836;28;19917;-87